sensor_id;sensor_type;location;lat;lon;timestamp;P1;durP1;ratioP1;P2;durP2;ratioP2
9108;SDS011;4590;51.462;6.692;2024-03-08T05:31:57;28.30;;;17.52;;
9108;SDS011;4590;51.462;6.692;2024-03-08T05:36:49;34.13;;;19.70;;
9108;SDS011;4590;51.462;6.692;2024-03-08T05:39:16;30.17;;;19.37;;
9108;SDS011;4590;51.462;6.692;2024-03-08T05:44:08;29.55;;;18.52;;
9108;SDS011;4590;51.462;6.692;2024-03-08T05:46:34;31.02;;;18.52;;
9108;SDS011;4590;51.462;6.692;2024-03-08T05:49:00;33.13;;;19.65;;
9108;SDS011;4590;51.462;6.692;2024-03-08T05:51:30;35.15;;;19.80;;
9108;SDS011;4590;51.462;6.692;2024-03-08T05:53:59;33.25;;;19.25;;
9108;SDS011;4590;51.462;6.692;2024-03-08T05:56:26;34.17;;;20.23;;
9108;SDS011;4590;51.462;6.692;2024-03-08T05:58:51;30.17;;;18.97;;
9108;SDS011;4590;51.462;6.692;2024-03-08T06:01:16;30.70;;;18.80;;
9108;SDS011;4590;51.462;6.692;2024-03-08T06:03:41;32.03;;;19.80;;
9108;SDS011;4590;51.462;6.692;2024-03-08T06:06:13;34.92;;;19.75;;
9108;SDS011;4590;51.462;6.692;2024-03-08T06:08:39;33.40;;;18.30;;
9108;SDS011;4590;51.462;6.692;2024-03-08T06:11:04;32.93;;;20.03;;
9108;SDS011;4590;51.462;6.692;2024-03-08T06:13:31;35.03;;;20.80;;
9108;SDS011;4590;51.462;6.692;2024-03-08T06:15:57;32.30;;;20.55;;
9108;SDS011;4590;51.462;6.692;2024-03-08T06:18:22;35.13;;;20.57;;
9108;SDS011;4590;51.462;6.692;2024-03-08T06:20:47;33.47;;;20.50;;
9108;SDS011;4590;51.462;6.692;2024-03-08T06:23:13;36.20;;;21.17;;
9108;SDS011;4590;51.462;6.692;2024-03-08T06:25:42;36.17;;;20.33;;
9108;SDS011;4590;51.462;6.692;2024-03-08T06:28:08;32.13;;;19.90;;
9108;SDS011;4590;51.462;6.692;2024-03-08T06:30:35;32.88;;;20.08;;
9108;SDS011;4590;51.462;6.692;2024-03-08T06:33:01;31.37;;;20.33;;
9108;SDS011;4590;51.462;6.692;2024-03-08T06:35:26;34.53;;;20.50;;
9108;SDS011;4590;51.462;6.692;2024-03-08T06:37:51;35.70;;;19.97;;
9108;SDS011;4590;51.462;6.692;2024-03-08T06:40:18;34.70;;;20.87;;
9108;SDS011;4590;51.462;6.692;2024-03-08T06:42:43;33.58;;;20.33;;
9108;SDS011;4590;51.462;6.692;2024-03-08T06:45:09;39.10;;;20.23;;
9108;SDS011;4590;51.462;6.692;2024-03-08T06:47:35;38.78;;;19.73;;
9108;SDS011;4590;51.462;6.692;2024-03-08T06:50:02;34.85;;;20.60;;
9108;SDS011;4590;51.462;6.692;2024-03-08T06:52:28;36.70;;;20.25;;
9108;SDS011;4590;51.462;6.692;2024-03-08T06:54:57;33.42;;;20.77;;
9108;SDS011;4590;51.462;6.692;2024-03-08T06:57:23;35.40;;;19.67;;
9108;SDS011;4590;51.462;6.692;2024-03-08T06:59:48;33.67;;;19.83;;
9108;SDS011;4590;51.462;6.692;2024-03-08T07:02:14;35.20;;;21.00;;
9108;SDS011;4590;51.462;6.692;2024-03-08T07:04:40;32.33;;;21.05;;
9108;SDS011;4590;51.462;6.692;2024-03-08T07:07:05;35.40;;;21.17;;
9108;SDS011;4590;51.462;6.692;2024-03-08T07:09:34;32.35;;;18.33;;
9108;SDS011;4590;51.462;6.692;2024-03-08T07:12:00;36.40;;;20.98;;
9108;SDS011;4590;51.462;6.692;2024-03-08T07:14:28;32.53;;;20.42;;
9108;SDS011;4590;51.462;6.692;2024-03-08T07:16:54;33.88;;;20.38;;
9108;SDS011;4590;51.462;6.692;2024-03-08T07:21:46;37.35;;;20.48;;
9108;SDS011;4590;51.462;6.692;2024-03-08T07:24:12;42.15;;;23.50;;
9108;SDS011;4590;51.462;6.692;2024-03-08T07:27:06;38.35;;;22.10;;
9108;SDS011;4590;51.462;6.692;2024-03-08T07:29:34;34.53;;;20.67;;
9108;SDS011;4590;51.462;6.692;2024-03-08T07:32:00;34.47;;;20.52;;
9108;SDS011;4590;51.462;6.692;2024-03-08T07:34:25;35.93;;;21.73;;
9108;SDS011;4590;51.462;6.692;2024-03-08T07:36:52;36.63;;;19.97;;
9108;SDS011;4590;51.462;6.692;2024-03-08T07:39:17;33.83;;;20.50;;
9108;SDS011;4590;51.462;6.692;2024-03-08T07:41:43;30.50;;;19.17;;
9108;SDS011;4590;51.462;6.692;2024-03-08T07:44:09;33.50;;;20.20;;
9108;SDS011;4590;51.462;6.692;2024-03-08T07:46:35;34.17;;;20.10;;
9108;SDS011;4590;51.462;6.692;2024-03-08T07:49:02;34.80;;;20.63;;
9108;SDS011;4590;51.462;6.692;2024-03-08T07:51:31;35.65;;;22.27;;
9108;SDS011;4590;51.462;6.692;2024-03-08T07:53:56;40.17;;;23.88;;
9108;SDS011;4590;51.462;6.692;2024-03-08T07:56:22;35.77;;;20.10;;
9108;SDS011;4590;51.462;6.692;2024-03-08T07:58:47;38.90;;;21.73;;
9108;SDS011;4590;51.462;6.692;2024-03-08T08:01:16;32.00;;;19.73;;
9108;SDS011;4590;51.462;6.692;2024-03-08T08:03:42;33.47;;;20.38;;
9108;SDS011;4590;51.462;6.692;2024-03-08T08:06:12;35.17;;;19.85;;
9108;SDS011;4590;51.462;6.692;2024-03-08T08:08:44;45.08;;;20.13;;
9108;SDS011;4590;51.462;6.692;2024-03-08T08:11:09;31.30;;;17.90;;
9108;SDS011;4590;51.462;6.692;2024-03-08T08:16:02;32.00;;;19.67;;
9108;SDS011;4590;51.462;6.692;2024-03-08T08:18:28;30.83;;;18.67;;
9108;SDS011;4590;51.462;6.692;2024-03-08T08:20:55;32.00;;;19.05;;
9108;SDS011;4590;51.462;6.692;2024-03-08T08:23:20;29.65;;;18.45;;
9108;SDS011;4590;51.462;6.692;2024-03-08T08:25:46;31.40;;;18.33;;
9108;SDS011;4590;51.462;6.692;2024-03-08T08:28:15;33.15;;;20.02;;
9108;SDS011;4590;51.462;6.692;2024-03-08T08:31:00;31.42;;;19.13;;
9108;SDS011;4590;51.462;6.692;2024-03-08T08:33:27;26.90;;;17.63;;
9108;SDS011;4590;51.462;6.692;2024-03-08T08:35:52;27.33;;;17.48;;
9108;SDS011;4590;51.462;6.692;2024-03-08T08:40:45;29.70;;;18.25;;
9108;SDS011;4590;51.462;6.692;2024-03-08T08:45:36;30.20;;;17.77;;
9108;SDS011;4590;51.462;6.692;2024-03-08T08:48:03;31.05;;;17.65;;
9108;SDS011;4590;51.462;6.692;2024-03-08T08:50:30;29.00;;;18.15;;
9108;SDS011;4590;51.462;6.692;2024-03-08T08:52:56;25.52;;;16.02;;
9108;SDS011;4590;51.462;6.692;2024-03-08T08:55:21;21.37;;;13.90;;
9108;SDS011;4590;51.462;6.692;2024-03-08T08:57:50;26.75;;;16.50;;
9108;SDS011;4590;51.462;6.692;2024-03-08T09:00:16;26.40;;;15.95;;
9108;SDS011;4590;51.462;6.692;2024-03-08T09:02:43;23.63;;;15.43;;
9108;SDS011;4590;51.462;6.692;2024-03-08T09:07:36;24.00;;;15.27;;
9108;SDS011;4590;51.462;6.692;2024-03-08T09:10:07;22.17;;;14.48;;
9108;SDS011;4590;51.462;6.692;2024-03-08T09:12:53;27.60;;;16.98;;
9108;SDS011;4590;51.462;6.692;2024-03-08T09:15:18;25.73;;;15.23;;
9108;SDS011;4590;51.462;6.692;2024-03-08T09:17:43;25.33;;;15.80;;
9108;SDS011;4590;51.462;6.692;2024-03-08T09:20:10;22.57;;;14.23;;
9108;SDS011;4590;51.462;6.692;2024-03-08T09:22:39;25.15;;;15.60;;
9108;SDS011;4590;51.462;6.692;2024-03-08T09:25:05;27.60;;;15.23;;
9108;SDS011;4590;51.462;6.692;2024-03-08T09:27:32;22.75;;;15.13;;
9108;SDS011;4590;51.462;6.692;2024-03-08T09:29:58;20.27;;;14.27;;
9108;SDS011;4590;51.462;6.692;2024-03-08T09:32:23;24.90;;;15.23;;
9108;SDS011;4590;51.462;6.692;2024-03-08T09:34:49;22.63;;;13.87;;
9108;SDS011;4590;51.462;6.692;2024-03-08T09:37:15;20.73;;;13.75;;
9108;SDS011;4590;51.462;6.692;2024-03-08T09:39:40;22.20;;;13.47;;
9108;SDS011;4590;51.462;6.692;2024-03-08T09:42:06;23.23;;;13.98;;
9108;SDS011;4590;51.462;6.692;2024-03-08T09:44:31;21.80;;;13.83;;
9108;SDS011;4590;51.462;6.692;2024-03-08T09:46:57;25.30;;;15.07;;
9108;SDS011;4590;51.462;6.692;2024-03-08T09:49:24;23.27;;;14.57;;
9108;SDS011;4590;51.462;6.692;2024-03-08T09:51:49;23.67;;;14.90;;
9108;SDS011;4590;51.462;6.692;2024-03-08T09:54:16;23.38;;;14.57;;
9108;SDS011;4590;51.462;6.692;2024-03-08T09:56:42;23.83;;;15.23;;
9108;SDS011;4590;51.462;6.692;2024-03-08T09:59:09;26.23;;;15.13;;
9108;SDS011;4590;51.462;6.692;2024-03-08T10:01:35;21.13;;;13.93;;
9108;SDS011;4590;51.462;6.692;2024-03-08T10:04:01;23.10;;;14.60;;
9108;SDS011;4590;51.462;6.692;2024-03-08T10:06:27;21.08;;;13.85;;
9108;SDS011;4590;51.462;6.692;2024-03-08T10:08:52;26.73;;;15.03;;
9108;SDS011;4590;51.462;6.692;2024-03-08T10:11:18;23.07;;;14.60;;
9108;SDS011;4590;51.462;6.692;2024-03-08T10:13:44;21.13;;;14.27;;
9108;SDS011;4590;51.462;6.692;2024-03-08T10:16:11;23.73;;;14.93;;
9108;SDS011;4590;51.462;6.692;2024-03-08T10:18:37;22.52;;;14.05;;
9108;SDS011;4590;51.462;6.692;2024-03-08T10:21:02;20.47;;;13.13;;
9108;SDS011;4590;51.462;6.692;2024-03-08T10:23:29;24.17;;;15.60;;
9108;SDS011;4590;51.462;6.692;2024-03-08T10:25:55;22.73;;;13.80;;
9108;SDS011;4590;51.462;6.692;2024-03-08T10:28:23;23.60;;;14.00;;
9108;SDS011;4590;51.462;6.692;2024-03-08T10:30:49;23.83;;;14.40;;
9108;SDS011;4590;51.462;6.692;2024-03-08T10:33:15;22.30;;;14.00;;
9108;SDS011;4590;51.462;6.692;2024-03-08T10:35:40;22.03;;;14.83;;
9108;SDS011;4590;51.462;6.692;2024-03-08T10:38:05;22.17;;;14.73;;
9108;SDS011;4590;51.462;6.692;2024-03-08T10:40:37;20.20;;;13.10;;
9108;SDS011;4590;51.462;6.692;2024-03-08T10:43:04;20.92;;;13.05;;
9108;SDS011;4590;51.462;6.692;2024-03-08T10:45:38;20.23;;;13.02;;
9108;SDS011;4590;51.462;6.692;2024-03-08T10:48:19;22.05;;;14.65;;
9108;SDS011;4590;51.462;6.692;2024-03-08T10:50:59;23.58;;;15.40;;
9108;SDS011;4590;51.462;6.692;2024-03-08T10:53:27;24.10;;;15.10;;
9108;SDS011;4590;51.462;6.692;2024-03-08T10:55:54;20.25;;;13.38;;
9108;SDS011;4590;51.462;6.692;2024-03-08T10:58:22;22.52;;;14.25;;
9108;SDS011;4590;51.462;6.692;2024-03-08T11:00:54;21.02;;;13.07;;
9108;SDS011;4590;51.462;6.692;2024-03-08T11:06:05;17.45;;;11.45;;
9108;SDS011;4590;51.462;6.692;2024-03-08T11:08:31;16.35;;;10.68;;
9108;SDS011;4590;51.462;6.692;2024-03-08T11:10:56;21.60;;;13.00;;
9108;SDS011;4590;51.462;6.692;2024-03-08T11:13:34;19.73;;;12.57;;
9108;SDS011;4590;51.462;6.692;2024-03-08T11:16:00;19.48;;;12.82;;
9108;SDS011;4590;51.462;6.692;2024-03-08T11:18:26;18.42;;;12.95;;
9108;SDS011;4590;51.462;6.692;2024-03-08T11:20:55;19.73;;;13.00;;
9108;SDS011;4590;51.462;6.692;2024-03-08T11:23:22;21.75;;;13.15;;
9108;SDS011;4590;51.462;6.692;2024-03-08T11:25:48;23.35;;;13.38;;
9108;SDS011;4590;51.462;6.692;2024-03-08T11:28:21;19.85;;;13.27;;
9108;SDS011;4590;51.462;6.692;2024-03-08T11:33:24;19.33;;;12.38;;
9108;SDS011;4590;51.462;6.692;2024-03-08T11:35:51;18.02;;;12.15;;
9108;SDS011;4590;51.462;6.692;2024-03-08T11:38:17;22.67;;;14.33;;
9108;SDS011;4590;51.462;6.692;2024-03-08T11:40:45;23.50;;;13.65;;
9108;SDS011;4590;51.462;6.692;2024-03-08T11:43:11;20.85;;;13.95;;
9108;SDS011;4590;51.462;6.692;2024-03-08T11:45:37;20.00;;;13.07;;
9108;SDS011;4590;51.462;6.692;2024-03-08T11:48:03;21.70;;;14.33;;
9108;SDS011;4590;51.462;6.692;2024-03-08T11:50:29;23.42;;;14.55;;
9108;SDS011;4590;51.462;6.692;2024-03-08T11:53:04;24.63;;;15.00;;
9108;SDS011;4590;51.462;6.692;2024-03-08T11:55:31;20.30;;;13.10;;
9108;SDS011;4590;51.462;6.692;2024-03-08T11:58:03;20.92;;;13.73;;
9108;SDS011;4590;51.462;6.692;2024-03-08T12:00:30;21.25;;;14.73;;
9108;SDS011;4590;51.462;6.692;2024-03-08T12:03:06;21.98;;;14.48;;
9108;SDS011;4590;51.462;6.692;2024-03-08T12:05:34;20.33;;;13.77;;
9108;SDS011;4590;51.462;6.692;2024-03-08T12:08:00;23.42;;;14.80;;
9108;SDS011;4590;51.462;6.692;2024-03-08T12:10:30;21.25;;;14.15;;
9108;SDS011;4590;51.462;6.692;2024-03-08T12:12:56;21.00;;;13.73;;
9108;SDS011;4590;51.462;6.692;2024-03-08T12:15:24;23.55;;;14.68;;
9108;SDS011;4590;51.462;6.692;2024-03-08T12:17:51;23.17;;;14.38;;
9108;SDS011;4590;51.462;6.692;2024-03-08T12:20:18;22.85;;;14.57;;
9108;SDS011;4590;51.462;6.692;2024-03-08T12:22:48;21.25;;;14.27;;
9108;SDS011;4590;51.462;6.692;2024-03-08T12:25:17;24.38;;;14.38;;
9108;SDS011;4590;51.462;6.692;2024-03-08T12:27:43;19.95;;;13.63;;
9108;SDS011;4590;51.462;6.692;2024-03-08T12:30:18;21.40;;;13.82;;
9108;SDS011;4590;51.462;6.692;2024-03-08T12:32:50;21.08;;;13.32;;
9108;SDS011;4590;51.462;6.692;2024-03-08T12:35:18;23.13;;;15.30;;
9108;SDS011;4590;51.462;6.692;2024-03-08T12:37:48;21.30;;;14.48;;
9108;SDS011;4590;51.462;6.692;2024-03-08T12:40:14;22.65;;;13.27;;
9108;SDS011;4590;51.462;6.692;2024-03-08T12:42:41;23.08;;;13.73;;
9108;SDS011;4590;51.462;6.692;2024-03-08T12:45:08;23.27;;;13.88;;
9108;SDS011;4590;51.462;6.692;2024-03-08T12:47:35;21.98;;;13.50;;
9108;SDS011;4590;51.462;6.692;2024-03-08T12:50:01;23.67;;;14.70;;
9108;SDS011;4590;51.462;6.692;2024-03-08T12:52:28;21.90;;;14.13;;
9108;SDS011;4590;51.462;6.692;2024-03-08T12:54:55;19.08;;;11.85;;
9108;SDS011;4590;51.462;6.692;2024-03-08T12:57:20;19.83;;;13.17;;
9108;SDS011;4590;51.462;6.692;2024-03-08T12:59:45;22.13;;;13.03;;
9108;SDS011;4590;51.462;6.692;2024-03-08T13:02:11;19.27;;;14.03;;
9108;SDS011;4590;51.462;6.692;2024-03-08T13:04:36;19.87;;;13.20;;
9108;SDS011;4590;51.462;6.692;2024-03-08T13:07:01;19.93;;;12.67;;
9108;SDS011;4590;51.462;6.692;2024-03-08T13:09:27;20.27;;;12.83;;
9108;SDS011;4590;51.462;6.692;2024-03-08T13:11:52;21.13;;;13.50;;
9108;SDS011;4590;51.462;6.692;2024-03-08T13:14:20;18.70;;;12.32;;
9108;SDS011;4590;51.462;6.692;2024-03-08T13:16:45;19.73;;;12.10;;
9108;SDS011;4590;51.462;6.692;2024-03-08T13:19:13;17.55;;;11.05;;
9108;SDS011;4590;51.462;6.692;2024-03-08T13:21:39;20.13;;;12.30;;
9108;SDS011;4590;51.462;6.692;2024-03-08T13:24:04;20.93;;;13.03;;
9108;SDS011;4590;51.462;6.692;2024-03-08T13:26:30;20.20;;;11.15;;
9108;SDS011;4590;51.462;6.692;2024-03-08T13:28:58;17.00;;;10.93;;
9108;SDS011;4590;51.462;6.692;2024-03-08T13:31:24;17.33;;;10.83;;
9108;SDS011;4590;51.462;6.692;2024-03-08T13:33:49;17.17;;;10.87;;
9108;SDS011;4590;51.462;6.692;2024-03-08T13:36:16;17.20;;;10.77;;
9108;SDS011;4590;51.462;6.692;2024-03-08T13:38:46;18.27;;;10.82;;
9108;SDS011;4590;51.462;6.692;2024-03-08T13:41:13;13.73;;;8.85;;
9108;SDS011;4590;51.462;6.692;2024-03-08T13:46:05;15.23;;;9.20;;
9108;SDS011;4590;51.462;6.692;2024-03-08T13:48:32;11.95;;;7.97;;
9108;SDS011;4590;51.462;6.692;2024-03-08T13:50:57;12.63;;;8.13;;
9108;SDS011;4590;51.462;6.692;2024-03-08T13:53:22;10.90;;;7.30;;
9108;SDS011;4590;51.462;6.692;2024-03-08T13:55:48;12.50;;;7.78;;
9108;SDS011;4590;51.462;6.692;2024-03-08T13:58:15;10.60;;;6.88;;
9108;SDS011;4590;51.462;6.692;2024-03-08T14:00:40;10.20;;;6.47;;
9108;SDS011;4590;51.462;6.692;2024-03-08T14:03:08;10.23;;;6.38;;
9108;SDS011;4590;51.462;6.692;2024-03-08T14:05:35;8.32;;;5.53;;
9108;SDS011;4590;51.462;6.692;2024-03-08T14:08:01;8.50;;;5.20;;
9108;SDS011;4590;51.462;6.692;2024-03-08T14:10:29;7.72;;;5.57;;
9108;SDS011;4590;51.462;6.692;2024-03-08T14:12:56;10.25;;;5.72;;
9108;SDS011;4590;51.462;6.692;2024-03-08T14:15:22;10.15;;;6.30;;
9108;SDS011;4590;51.462;6.692;2024-03-08T14:17:52;7.45;;;5.32;;
9108;SDS011;4590;51.462;6.692;2024-03-08T14:20:18;9.23;;;5.40;;
9108;SDS011;4590;51.462;6.692;2024-03-08T14:22:43;9.40;;;5.83;;
9108;SDS011;4590;51.462;6.692;2024-03-08T14:25:08;8.03;;;5.07;;
9108;SDS011;4590;51.462;6.692;2024-03-08T14:27:42;7.65;;;5.13;;
9108;SDS011;4590;51.462;6.692;2024-03-08T14:30:09;10.25;;;6.30;;
9108;SDS011;4590;51.462;6.692;2024-03-08T14:32:35;8.60;;;5.53;;
9108;SDS011;4590;51.462;6.692;2024-03-08T14:35:03;8.48;;;5.63;;
9108;SDS011;4590;51.462;6.692;2024-03-08T14:37:29;8.65;;;5.55;;
9108;SDS011;4590;51.462;6.692;2024-03-08T14:39:54;8.93;;;5.23;;
9108;SDS011;4590;51.462;6.692;2024-03-08T14:42:21;8.30;;;5.35;;
9108;SDS011;4590;51.462;6.692;2024-03-08T14:44:47;8.70;;;5.25;;
9108;SDS011;4590;51.462;6.692;2024-03-08T14:47:16;9.95;;;5.65;;
9108;SDS011;4590;51.462;6.692;2024-03-08T14:49:42;8.40;;;5.53;;
9108;SDS011;4590;51.462;6.692;2024-03-08T14:52:07;8.77;;;6.13;;
9108;SDS011;4590;51.462;6.692;2024-03-08T14:54:52;9.95;;;6.07;;
9108;SDS011;4590;51.462;6.692;2024-03-08T14:57:17;8.98;;;5.70;;
9108;SDS011;4590;51.462;6.692;2024-03-08T14:59:42;8.10;;;5.50;;
9108;SDS011;4590;51.462;6.692;2024-03-08T15:02:08;9.30;;;5.90;;
9108;SDS011;4590;51.462;6.692;2024-03-08T15:04:35;8.38;;;5.80;;
9108;SDS011;4590;51.462;6.692;2024-03-08T15:07:01;9.48;;;5.63;;
9108;SDS011;4590;51.462;6.692;2024-03-08T15:09:27;11.93;;;6.35;;
9108;SDS011;4590;51.462;6.692;2024-03-08T15:11:52;9.70;;;6.53;;
9108;SDS011;4590;51.462;6.692;2024-03-08T15:14:19;8.80;;;5.82;;
9108;SDS011;4590;51.462;6.692;2024-03-08T15:16:45;9.00;;;5.68;;
9108;SDS011;4590;51.462;6.692;2024-03-08T15:19:13;10.82;;;6.03;;
9108;SDS011;4590;51.462;6.692;2024-03-08T15:21:40;10.43;;;6.57;;
9108;SDS011;4590;51.462;6.692;2024-03-08T15:24:08;9.90;;;5.68;;
9108;SDS011;4590;51.462;6.692;2024-03-08T15:26:40;8.98;;;6.38;;
9108;SDS011;4590;51.462;6.692;2024-03-08T15:29:06;10.55;;;6.45;;
9108;SDS011;4590;51.462;6.692;2024-03-08T15:31:31;9.67;;;6.00;;
9108;SDS011;4590;51.462;6.692;2024-03-08T15:33:57;9.93;;;7.07;;
9108;SDS011;4590;51.462;6.692;2024-03-08T15:36:28;9.98;;;7.15;;
9108;SDS011;4590;51.462;6.692;2024-03-08T15:38:56;11.80;;;6.82;;
9108;SDS011;4590;51.462;6.692;2024-03-08T15:41:21;9.52;;;6.07;;
9108;SDS011;4590;51.462;6.692;2024-03-08T15:43:47;11.30;;;6.93;;
9108;SDS011;4590;51.462;6.692;2024-03-08T15:46:12;10.80;;;6.57;;
9108;SDS011;4590;51.462;6.692;2024-03-08T15:48:38;9.70;;;6.70;;
9108;SDS011;4590;51.462;6.692;2024-03-08T15:51:05;10.90;;;6.65;;
9108;SDS011;4590;51.462;6.692;2024-03-08T15:53:34;11.05;;;7.53;;
9108;SDS011;4590;51.462;6.692;2024-03-08T15:56:03;8.45;;;6.28;;
9108;SDS011;4590;51.462;6.692;2024-03-08T15:58:31;11.60;;;7.25;;
9108;SDS011;4590;51.462;6.692;2024-03-08T16:00:56;12.40;;;7.82;;
9108;SDS011;4590;51.462;6.692;2024-03-08T16:03:24;12.45;;;8.02;;
9108;SDS011;4590;51.462;6.692;2024-03-08T16:05:50;15.73;;;7.97;;
9108;SDS011;4590;51.462;6.692;2024-03-08T16:08:16;14.23;;;7.83;;
9108;SDS011;4590;51.462;6.692;2024-03-08T16:10:43;12.30;;;7.10;;
9108;SDS011;4590;51.462;6.692;2024-03-08T16:13:15;12.13;;;8.10;;
9108;SDS011;4590;51.462;6.692;2024-03-08T16:15:43;11.85;;;8.25;;
9108;SDS011;4590;51.462;6.692;2024-03-08T16:18:09;13.63;;;8.43;;
9108;SDS011;4590;51.462;6.692;2024-03-08T16:20:39;10.32;;;7.03;;
9108;SDS011;4590;51.462;6.692;2024-03-08T16:23:05;13.20;;;8.35;;
9108;SDS011;4590;51.462;6.692;2024-03-08T16:25:30;11.32;;;7.15;;
9108;SDS011;4590;51.462;6.692;2024-03-08T16:27:56;12.10;;;7.97;;
9108;SDS011;4590;51.462;6.692;2024-03-08T16:30:21;12.13;;;7.67;;
9108;SDS011;4590;51.462;6.692;2024-03-08T16:32:49;12.27;;;7.95;;
9108;SDS011;4590;51.462;6.692;2024-03-08T16:35:19;12.48;;;7.30;;
9108;SDS011;4590;51.462;6.692;2024-03-08T16:37:45;13.35;;;8.23;;
9108;SDS011;4590;51.462;6.692;2024-03-08T16:40:10;12.57;;;7.73;;
9108;SDS011;4590;51.462;6.692;2024-03-08T16:42:45;10.77;;;6.80;;
9108;SDS011;4590;51.462;6.692;2024-03-08T16:45:16;13.27;;;8.00;;
9108;SDS011;4590;51.462;6.692;2024-03-08T16:47:41;13.73;;;7.82;;
9108;SDS011;4590;51.462;6.692;2024-03-08T16:50:07;12.60;;;7.17;;
9108;SDS011;4590;51.462;6.692;2024-03-08T16:52:33;12.73;;;8.00;;
9108;SDS011;4590;51.462;6.692;2024-03-08T16:55:04;13.55;;;7.35;;
9108;SDS011;4590;51.462;6.692;2024-03-08T16:57:34;10.68;;;7.32;;
9108;SDS011;4590;51.462;6.692;2024-03-08T16:59:59;15.25;;;8.77;;
9108;SDS011;4590;51.462;6.692;2024-03-08T17:02:24;15.33;;;9.37;;
9108;SDS011;4590;51.462;6.692;2024-03-08T17:04:50;13.20;;;8.53;;
9108;SDS011;4590;51.462;6.692;2024-03-08T17:07:15;13.25;;;8.10;;
9108;SDS011;4590;51.462;6.692;2024-03-08T17:09:41;17.30;;;9.77;;
9108;SDS011;4590;51.462;6.692;2024-03-08T17:12:06;13.18;;;8.13;;
9108;SDS011;4590;51.462;6.692;2024-03-08T17:14:35;13.68;;;8.10;;
9108;SDS011;4590;51.462;6.692;2024-03-08T17:17:03;12.68;;;8.43;;
9108;SDS011;4590;51.462;6.692;2024-03-08T17:19:29;13.15;;;7.95;;
9108;SDS011;4590;51.462;6.692;2024-03-08T17:21:55;12.97;;;8.43;;
9108;SDS011;4590;51.462;6.692;2024-03-08T17:24:20;15.93;;;8.77;;
9108;SDS011;4590;51.462;6.692;2024-03-08T17:26:49;15.60;;;8.07;;
9108;SDS011;4590;51.462;6.692;2024-03-08T17:29:15;12.88;;;8.60;;
9108;SDS011;4590;51.462;6.692;2024-03-08T17:31:40;13.77;;;8.13;;
9108;SDS011;4590;51.462;6.692;2024-03-08T17:34:07;13.88;;;9.32;;
9108;SDS011;4590;51.462;6.692;2024-03-08T17:36:34;12.73;;;8.00;;
9108;SDS011;4590;51.462;6.692;2024-03-08T17:39:00;14.77;;;8.27;;
9108;SDS011;4590;51.462;6.692;2024-03-08T17:41:25;13.57;;;8.43;;
9108;SDS011;4590;51.462;6.692;2024-03-08T17:43:51;12.67;;;7.93;;
9108;SDS011;4590;51.462;6.692;2024-03-08T17:46:16;15.10;;;8.68;;
9108;SDS011;4590;51.462;6.692;2024-03-08T17:48:42;13.80;;;8.17;;
9108;SDS011;4590;51.462;6.692;2024-03-08T17:51:07;14.03;;;7.60;;
9108;SDS011;4590;51.462;6.692;2024-03-08T17:53:32;13.57;;;8.53;;
9108;SDS011;4590;51.462;6.692;2024-03-08T17:55:59;13.68;;;8.18;;
9108;SDS011;4590;51.462;6.692;2024-03-08T17:58:24;14.80;;;8.87;;
9108;SDS011;4590;51.462;6.692;2024-03-08T18:03:17;18.35;;;8.95;;
9108;SDS011;4590;51.462;6.692;2024-03-08T18:05:43;16.48;;;8.50;;
9108;SDS011;4590;51.462;6.692;2024-03-08T18:08:09;16.05;;;8.30;;
9108;SDS011;4590;51.462;6.692;2024-03-08T18:10:35;12.68;;;8.07;;
9108;SDS011;4590;51.462;6.692;2024-03-08T18:13:03;14.00;;;8.57;;
9108;SDS011;4590;51.462;6.692;2024-03-08T18:15:38;15.48;;;8.82;;
9108;SDS011;4590;51.462;6.692;2024-03-08T18:18:04;13.48;;;8.68;;
9108;SDS011;4590;51.462;6.692;2024-03-08T18:20:34;17.08;;;8.60;;
9108;SDS011;4590;51.462;6.692;2024-03-08T18:23:08;14.93;;;8.95;;
9108;SDS011;4590;51.462;6.692;2024-03-08T18:25:35;15.65;;;8.23;;
9108;SDS011;4590;51.462;6.692;2024-03-08T18:28:03;15.43;;;8.63;;
9108;SDS011;4590;51.462;6.692;2024-03-08T18:30:33;12.30;;;7.88;;
9108;SDS011;4590;51.462;6.692;2024-03-08T18:33:03;15.13;;;8.80;;
9108;SDS011;4590;51.462;6.692;2024-03-08T18:35:29;17.08;;;9.68;;
9108;SDS011;4590;51.462;6.692;2024-03-08T18:37:55;16.37;;;9.20;;
9108;SDS011;4590;51.462;6.692;2024-03-08T18:40:21;17.10;;;9.13;;
9108;SDS011;4590;51.462;6.692;2024-03-08T18:42:50;14.25;;;8.40;;
9108;SDS011;4590;51.462;6.692;2024-03-08T18:47:46;11.95;;;7.13;;
9108;SDS011;4590;51.462;6.692;2024-03-08T18:50:14;13.38;;;7.70;;
9108;SDS011;4590;51.462;6.692;2024-03-08T18:52:40;13.25;;;7.80;;
9108;SDS011;4590;51.462;6.692;2024-03-08T18:57:38;13.80;;;7.88;;
9108;SDS011;4590;51.462;6.692;2024-03-08T19:00:13;12.68;;;7.63;;
9108;SDS011;4590;51.462;6.692;2024-03-08T19:02:49;12.70;;;8.07;;
9108;SDS011;4590;51.462;6.692;2024-03-08T19:05:19;11.75;;;7.07;;
9108;SDS011;4590;51.462;6.692;2024-03-08T19:07:45;13.00;;;7.57;;
9108;SDS011;4590;51.462;6.692;2024-03-08T19:10:12;12.68;;;7.75;;
9108;SDS011;4590;51.462;6.692;2024-03-08T19:12:43;16.33;;;8.55;;
9108;SDS011;4590;51.462;6.692;2024-03-08T19:15:09;13.50;;;8.32;;
9108;SDS011;4590;51.462;6.692;2024-03-08T19:17:35;13.45;;;8.10;;
9108;SDS011;4590;51.462;6.692;2024-03-08T19:22:31;17.17;;;8.82;;
9108;SDS011;4590;51.462;6.692;2024-03-08T19:24:57;23.55;;;10.18;;
9108;SDS011;4590;51.462;6.692;2024-03-08T19:27:22;29.07;;;12.27;;
9108;SDS011;4590;51.462;6.692;2024-03-08T19:29:47;23.90;;;10.47;;
9108;SDS011;4590;51.462;6.692;2024-03-08T19:32:13;18.80;;;9.57;;
9108;SDS011;4590;51.462;6.692;2024-03-08T19:34:38;18.83;;;9.17;;
9108;SDS011;4590;51.462;6.692;2024-03-08T19:37:04;15.50;;;9.47;;
9108;SDS011;4590;51.462;6.692;2024-03-08T19:39:31;18.35;;;9.70;;
9108;SDS011;4590;51.462;6.692;2024-03-08T19:41:56;18.27;;;10.93;;
9108;SDS011;4590;51.462;6.692;2024-03-08T19:44:23;19.88;;;10.90;;
9108;SDS011;4590;51.462;6.692;2024-03-08T19:46:49;17.33;;;11.60;;
9108;SDS011;4590;51.462;6.692;2024-03-08T19:49:14;19.10;;;10.80;;
9108;SDS011;4590;51.462;6.692;2024-03-08T19:51:41;26.55;;;13.02;;
9108;SDS011;4590;51.462;6.692;2024-03-08T19:54:07;20.10;;;12.25;;
9108;SDS011;4590;51.462;6.692;2024-03-08T19:56:32;23.27;;;12.77;;
9108;SDS011;4590;51.462;6.692;2024-03-08T19:58:59;22.95;;;12.95;;
9108;SDS011;4590;51.462;6.692;2024-03-08T20:01:25;24.42;;;13.75;;
9108;SDS011;4590;51.462;6.692;2024-03-08T20:03:50;23.03;;;12.87;;
9108;SDS011;4590;51.462;6.692;2024-03-08T20:06:16;22.90;;;12.80;;
9108;SDS011;4590;51.462;6.692;2024-03-08T20:08:46;23.92;;;14.40;;
9108;SDS011;4590;51.462;6.692;2024-03-08T20:11:11;22.93;;;13.90;;
9108;SDS011;4590;51.462;6.692;2024-03-08T20:13:37;21.40;;;13.80;;
9108;SDS011;4590;51.462;6.692;2024-03-08T20:16:03;25.10;;;13.55;;
9108;SDS011;4590;51.462;6.692;2024-03-08T20:18:29;24.85;;;14.70;;
9108;SDS011;4590;51.462;6.692;2024-03-08T20:20:56;23.85;;;14.48;;
9108;SDS011;4590;51.462;6.692;2024-03-08T20:23:22;25.27;;;15.43;;
9108;SDS011;4590;51.462;6.692;2024-03-08T20:25:48;22.85;;;14.85;;
9108;SDS011;4590;51.462;6.692;2024-03-08T20:28:14;24.63;;;15.65;;
9108;SDS011;4590;51.462;6.692;2024-03-08T20:30:40;25.98;;;15.77;;
9108;SDS011;4590;51.462;6.692;2024-03-08T20:33:07;25.88;;;14.82;;
9108;SDS011;4590;51.462;6.692;2024-03-08T20:35:33;27.17;;;15.73;;
9108;SDS011;4590;51.462;6.692;2024-03-08T20:37:59;29.13;;;16.08;;
9108;SDS011;4590;51.462;6.692;2024-03-08T20:42:57;24.75;;;15.40;;
9108;SDS011;4590;51.462;6.692;2024-03-08T20:45:23;27.17;;;16.77;;
9108;SDS011;4590;51.462;6.692;2024-03-08T20:47:50;25.67;;;15.93;;
9108;SDS011;4590;51.462;6.692;2024-03-08T20:50:16;26.38;;;15.68;;
9108;SDS011;4590;51.462;6.692;2024-03-08T20:52:43;30.70;;;16.92;;
9108;SDS011;4590;51.462;6.692;2024-03-08T20:55:09;24.95;;;15.25;;
9108;SDS011;4590;51.462;6.692;2024-03-08T20:57:41;27.50;;;17.27;;
9108;SDS011;4590;51.462;6.692;2024-03-08T21:00:13;30.27;;;17.30;;
9108;SDS011;4590;51.462;6.692;2024-03-08T21:02:44;26.88;;;15.68;;